Terminal Aerodrome Forecast
Issued by NWS

Home | Current Version | Previous Version | Text Only | Print | Product List | Glossary On
Versions: 1 2 3 4 5 6 7 8 9 10 11 12 13 14 15 16 17 18 19 20 21 22 23 24 25 26 27 28 29 30 31 32 33 34 35 36 37 38 39 40 41 42 43 44 45
329
FTUS46 KEKA 050121 AAA
TAFACV
TAF AMD
KACV 050121Z 0501/0524 34012G20KT 3SM -RA BR FEW004 BKN015 OVC025
      TEMPO 0501/0502 5SM -RA BR SCT015 OVC025
     FM050200 33009KT 6SM -SHRA SCT025 BKN060
      TEMPO 0502/0504 P6SM BKN030
     FM050600 04003KT P6SM SCT025 BKN250
     FM051800 35004KT P6SM FEW250=

USA.gov is the U.S. government's official web portal to all federal, state and local government web resources and services.